Time;durP1;ratioP1;P1;durP2;ratioP2;P2;SDS_P1;SDS_P2;PMS_P1;PMS_P2;Temp;Humidity;BMP_temperature;BMP_pressure;BME280_temperature;BME280_humidity;BME280_pressure;Samples;Min_cycle;Max_cycle;Signal;HPM_P1;HPM_P2
2024/01/04 00:00:45;;;;;;;2.00;0.60;;;;;17.00;98278.00;;;;2085580;28;21062;-53
2024/01/04 00:01:46;;;;;;;1.20;0.50;;;;;17.00;98285.00;;;;2082114;28;20222;-53
2024/01/04 00:02:46;;;;;;;1.53;0.60;;;;;17.00;98282.00;;;;2075010;28;20221;-53
2024/01/04 00:03:46;;;;;;;1.37;0.50;;;;;17.00;98282.00;;;;2092905;28;20561;-49
2024/01/04 00:04:47;;;;;;;1.03;0.40;;;;;17.00;98274.00;;;;2086468;28;20218;-51
2024/01/04 00:05:47;;;;;;;1.73;0.60;;;;;17.00;98282.00;;;;2085818;28;20214;-53
2024/01/04 00:06:47;;;;;;;1.33;0.50;;;;;17.00;98285.00;;;;2076996;28;20268;-56
2024/01/04 00:07:48;;;;;;;1.30;0.60;;;;;17.00;98293.00;;;;2076788;28;20211;-53
2024/01/04 00:08:48;;;;;;;1.80;0.60;;;;;17.00;98287.00;;;;2085610;28;20270;-53
2024/01/04 00:09:48;;;;;;;1.90;0.70;;;;;17.00;98292.00;;;;2074074;28;20213;-53
2024/01/04 00:10:49;;;;;;;1.60;0.50;;;;;17.00;98292.00;;;;2083146;28;20271;-49
2024/01/04 00:11:49;;;;;;;1.60;0.60;;;;;17.00;98286.00;;;;2073121;28;20701;-54
2024/01/04 00:12:51;;;;;;;1.30;0.50;;;;;17.00;98283.00;;;;2081754;28;20689;-53
2024/01/04 00:13:52;;;;;;;1.55;0.70;;;;;17.00;98288.00;;;;2085898;28;20674;-53
2024/01/04 00:14:52;;;;;;;1.20;0.50;;;;;17.00;98290.00;;;;2084441;28;20254;-53
2024/01/04 00:15:52;;;;;;;1.57;0.50;;;;;17.00;98292.00;;;;2080517;28;20225;-52
2024/01/04 00:16:53;;;;;;;1.57;0.40;;;;;17.00;98294.00;;;;2074892;28;20221;-53
2024/01/04 00:17:53;;;;;;;1.60;0.50;;;;;16.50;98292.00;;;;2086018;28;20963;-53
2024/01/04 00:18:53;;;;;;;1.30;0.60;;;;;17.00;98300.00;;;;2084280;28;20221;-50
2024/01/04 00:19:54;;;;;;;1.30;0.40;;;;;17.00;98289.00;;;;2085584;28;20236;-52
2024/01/04 00:20:54;;;;;;;1.60;0.53;;;;;17.00;98301.00;;;;2082907;28;20225;-51
2024/01/04 00:21:54;;;;;;;1.90;0.97;;;;;17.00;98309.00;;;;2067930;28;20248;-52
2024/01/04 00:22:54;;;;;;;1.10;0.40;;;;;17.00;98303.00;;;;2085597;28;20355;-53
2024/01/04 00:23:55;;;;;;;1.33;0.60;;;;;17.00;98307.00;;;;2081458;28;20241;-53
2024/01/04 00:24:55;;;;;;;1.40;0.50;;;;;17.00;98308.00;;;;2085401;28;20289;-51
2024/01/04 00:25:56;;;;;;;2.03;0.50;;;;;16.90;98316.00;;;;2083626;28;20228;-49
2024/01/04 00:26:56;;;;;;;2.03;0.70;;;;;17.00;98303.00;;;;2075653;28;20225;-53
2024/01/04 00:27:56;;;;;;;1.27;0.63;;;;;17.00;98305.00;;;;2085619;28;20277;-53
2024/01/04 00:28:57;;;;;;;1.57;0.50;;;;;17.00;98316.00;;;;2084511;28;20222;-53
2024/01/04 00:29:57;;;;;;;1.60;0.50;;;;;17.00;98311.00;;;;2093471;28;20217;-53
2024/01/04 00:30:58;;;;;;;2.37;0.70;;;;;17.00;98320.00;;;;2083465;28;20246;-53
2024/01/04 00:31:58;;;;;;;1.10;0.40;;;;;17.00;98324.00;;;;2073012;28;20241;-50
2024/01/04 00:32:58;;;;;;;2.40;0.60;;;;;17.00;98330.00;;;;2084117;28;20228;-52
2024/01/04 00:33:59;;;;;;;1.80;0.50;;;;;17.00;98324.00;;;;2084813;28;20748;-53
2024/01/04 00:34:59;;;;;;;1.70;0.70;;;;;17.00;98323.00;;;;2075862;28;20223;-49
2024/01/04 00:36:00;;;;;;;1.33;0.53;;;;;17.00;98321.00;;;;2084754;28;20224;-51
2024/01/04 00:37:00;;;;;;;1.10;0.50;;;;;17.00;98323.00;;;;2075902;28;20274;-52
2024/01/04 00:38:00;;;;;;;1.97;0.63;;;;;17.00;98326.00;;;;2084105;28;20224;-51
2024/01/04 00:39:01;;;;;;;1.17;0.50;;;;;17.00;98333.00;;;;2092295;28;20221;-52
2024/01/04 00:40:01;;;;;;;1.50;0.60;;;;;17.00;98329.00;;;;2084710;28;20236;-53
2024/01/04 00:41:02;;;;;;;1.17;0.40;;;;;17.00;98336.00;;;;2083647;28;20218;-53
2024/01/04 00:42:02;;;;;;;1.30;0.60;;;;;17.00;98334.00;;;;2075817;28;20327;-53
2024/01/04 00:43:04;;;;;;;1.17;0.50;;;;;17.00;98335.00;;;;2079103;28;20352;-50
2024/01/04 00:44:04;;;;;;;1.50;0.73;;;;;17.00;98332.00;;;;2085289;28;20222;-52
2024/01/04 00:45:05;;;;;;;1.50;0.57;;;;;17.00;98337.00;;;;2082003;28;20692;-49
2024/01/04 00:46:05;;;;;;;1.60;0.57;;;;;17.00;98336.00;;;;2085565;28;20224;-52
2024/01/04 00:47:05;;;;;;;1.90;0.60;;;;;16.60;98331.00;;;;2075557;28;20213;-52
2024/01/04 00:48:06;;;;;;;1.20;0.50;;;;;17.00;98335.00;;;;2085961;28;20216;-53
2024/01/04 00:49:06;;;;;;;1.40;0.60;;;;;17.00;98332.00;;;;2092896;28;20215;-53
2024/01/04 00:50:07;;;;;;;1.30;0.60;;;;;17.00;98337.00;;;;2083108;28;20244;-53
2024/01/04 00:51:07;;;;;;;1.40;0.50;;;;;17.00;98337.00;;;;2085778;28;20214;-53
2024/01/04 00:52:08;;;;;;;1.10;0.40;;;;;17.00;98334.00;;;;2073787;28;20577;-53
2024/01/04 00:53:08;;;;;;;1.67;0.70;;;;;17.00;98343.00;;;;2086881;28;20924;-53
2024/01/04 00:54:09;;;;;;;1.20;0.60;;;;;17.00;98342.00;;;;2087216;28;20237;-53
2024/01/04 00:55:09;;;;;;;1.20;0.53;;;;;17.00;98336.00;;;;2086254;28;20458;-49
2024/01/04 00:56:10;;;;;;;1.47;0.60;;;;;17.00;98335.00;;;;2087377;28;20212;-53
2024/01/04 00:57:10;;;;;;;1.10;0.50;;;;;17.00;98348.00;;;;2076276;28;21077;-53
2024/01/04 00:58:10;;;;;;;1.50;0.60;;;;;17.00;98344.00;;;;2085536;28;20216;-53
2024/01/04 00:59:11;;;;;;;1.27;0.53;;;;;17.00;98354.00;;;;2084830;28;20205;-53
2024/01/04 01:00:12;;;;;;;1.50;0.60;;;;;17.00;98343.00;;;;2087042;28;20352;-50
2024/01/04 01:01:12;;;;;;;1.97;0.70;;;;;17.00;98354.00;;;;2086699;28;20487;-53
2024/01/04 01:02:13;;;;;;;1.30;0.60;;;;;17.00;98352.00;;;;2077454;28;20468;-53
2024/01/04 01:03:13;;;;;;;1.50;0.60;;;;;17.00;98351.00;;;;2086910;28;20235;-53
2024/01/04 01:04:13;;;;;;;1.20;0.57;;;;;17.00;98364.00;;;;2085852;28;20201;-52
2024/01/04 01:05:14;;;;;;;1.20;0.47;;;;;17.00;98188.00;;;;2081546;28;20214;-49
2024/01/04 01:06:14;;;;;;;1.63;0.50;;;;;17.00;98363.00;;;;2086332;28;20222;-50
2024/01/04 01:07:14;;;;;;;1.40;0.53;;;;;17.00;98360.00;;;;2076803;28;20654;-52
2024/01/04 01:08:15;;;;;;;1.20;0.50;;;;;17.00;98362.00;;;;2088368;28;20222;-53
2024/01/04 01:09:16;;;;;;;1.42;0.52;;;;;17.00;98358.00;;;;2087335;28;21067;-50
2024/01/04 01:10:16;;;;;;;1.47;0.60;;;;;17.00;98366.00;;;;2087042;28;20230;-50
2024/01/04 01:11:16;;;;;;;1.57;0.50;;;;;17.00;98371.00;;;;2084502;28;20294;-53
2024/01/04 01:12:17;;;;;;;1.37;0.50;;;;;17.00;98372.00;;;;2077326;28;20255;-53
2024/01/04 01:13:20;;;;;;;1.17;0.40;;;;;17.00;98372.00;;;;2082859;28;20223;-53
2024/01/04 01:14:20;;;;;;;1.30;0.55;;;;;17.00;98380.00;;;;2085577;28;20213;-50
2024/01/04 01:15:21;;;;;;;1.10;0.50;;;;;17.00;98370.00;;;;2083369;28;20234;-52
2024/01/04 01:16:21;;;;;;;1.10;0.40;;;;;17.00;98364.00;;;;2085466;28;20214;-53
2024/01/04 01:17:21;;;;;;;2.23;0.70;;;;;17.00;98381.00;;;;2080906;28;20221;-53
2024/01/04 01:18:22;;;;;;;1.20;0.50;;;;;17.00;98386.00;;;;2091839;28;20756;-53
2024/01/04 01:19:22;;;;;;;1.73;0.60;;;;;17.00;98382.00;;;;2091804;28;20252;-53
2024/01/04 01:20:22;;;;;;;1.47;0.50;;;;;17.00;98394.00;;;;2086028;28;20213;-53
2024/01/04 01:21:23;;;;;;;1.20;0.50;;;;;17.00;98391.00;;;;2084479;28;20213;-49
2024/01/04 01:22:24;;;;;;;1.23;0.53;;;;;17.00;98393.00;;;;2077340;28;20259;-52
2024/01/04 01:23:24;;;;;;;1.60;0.57;;;;;17.00;98449.00;;;;2087694;28;20213;-52
2024/01/04 01:24:24;;;;;;;1.70;0.60;;;;;17.00;98451.00;;;;2094228;28;20545;-51
2024/01/04 01:25:25;;;;;;;1.20;0.50;;;;;17.00;98401.00;;;;2084638;28;20676;-51
2024/01/04 01:26:25;;;;;;;1.63;0.50;;;;;17.00;98399.00;;;;2087095;28;20703;-51
2024/01/04 01:27:25;;;;;;;1.80;0.60;;;;;17.00;98407.00;;;;2076073;28;20673;-51
2024/01/04 01:28:26;;;;;;;1.43;0.60;;;;;17.00;98409.00;;;;2081713;28;20700;-53
2024/01/04 01:29:26;;;;;;;1.70;0.60;;;;;17.00;98417.00;;;;2086203;28;20206;-53
2024/01/04 01:30:29;;;;;;;3.47;1.10;;;;;17.00;98415.00;;;;2078520;28;20221;-53
2024/01/04 01:31:29;;;;;;;1.63;0.50;;;;;17.00;98417.00;;;;2085593;28;20217;-50
2024/01/04 01:32:29;;;;;;;1.73;0.43;;;;;17.00;98419.00;;;;2076228;28;20210;-50
2024/01/04 01:33:30;;;;;;;1.10;0.50;;;;;17.00;98412.00;;;;2084424;28;20239;-53
2024/01/04 01:34:30;;;;;;;1.80;0.50;;;;;17.00;98423.00;;;;2086366;28;20220;-52
2024/01/04 01:35:30;;;;;;;1.50;0.70;;;;;17.00;98421.00;;;;2085575;28;20222;-53
2024/01/04 01:36:31;;;;;;;1.97;0.63;;;;;17.00;98420.00;;;;2082951;28;20210;-53
2024/01/04 01:37:31;;;;;;;1.60;0.70;;;;;17.00;98423.00;;;;2075242;28;20321;-53
2024/01/04 01:38:31;;;;;;;1.97;0.60;;;;;16.40;98431.00;;;;2086970;28;20209;-50
2024/01/04 01:39:32;;;;;;;1.17;0.53;;;;;17.00;98430.00;;;;2084882;28;20224;-52
2024/01/04 01:40:32;;;;;;;1.30;0.50;;;;;17.00;98434.00;;;;2085614;28;20291;-50
2024/01/04 01:41:32;;;;;;;1.33;0.50;;;;;17.00;98443.00;;;;2081901;28;20209;-53
2024/01/04 01:42:33;;;;;;;1.30;0.60;;;;;17.00;98438.00;;;;2071324;28;20220;-53
2024/01/04 01:43:33;;;;;;;1.17;0.43;;;;;17.00;98439.00;;;;2086970;28;20304;-53
2024/01/04 01:44:33;;;;;;;1.33;0.63;;;;;17.00;98443.00;;;;2084098;28;20217;-50
2024/01/04 01:45:34;;;;;;;1.20;0.50;;;;;17.00;98442.00;;;;2085415;28;20222;-51
2024/01/04 01:46:35;;;;;;;1.40;0.50;;;;;17.00;98448.00;;;;2086167;28;20256;-52
2024/01/04 01:47:35;;;;;;;1.80;0.90;;;;;17.00;98452.00;;;;2077080;28;20220;-52
2024/01/04 01:48:35;;;;;;;1.20;0.43;;;;;17.00;98451.00;;;;2085972;28;20701;-51
2024/01/04 01:49:36;;;;;;;1.23;0.57;;;;;17.00;98459.00;;;;2086458;28;20240;-53
2024/01/04 01:50:36;;;;;;;1.50;0.70;;;;;17.00;98456.00;;;;2086239;28;20244;-52
2024/01/04 01:51:37;;;;;;;1.50;0.60;;;;;17.00;98466.00;;;;2081716;28;20521;-53
2024/01/04 01:52:37;;;;;;;1.20;0.50;;;;;17.00;98464.00;;;;2076598;28;20217;-53
2024/01/04 01:53:38;;;;;;;1.77;0.57;;;;;17.00;98470.00;;;;2084842;28;20241;-53
2024/01/04 01:54:39;;;;;;;1.73;0.60;;;;;17.00;98467.00;;;;2077675;28;20301;-53
2024/01/04 01:55:39;;;;;;;1.65;0.60;;;;;17.00;98472.00;;;;2073562;28;20606;-57
2024/01/04 01:56:39;;;;;;;1.70;0.57;;;;;17.00;98478.00;;;;2068653;28;20328;-56
2024/01/04 01:57:40;;;;;;;1.80;0.80;;;;;17.00;98471.00;;;;2063441;28;20707;-55
2024/01/04 01:58:40;;;;;;;1.20;0.40;;;;;17.00;98477.00;;;;2079848;28;20681;-55
2024/01/04 01:59:40;;;;;;;1.40;0.50;;;;;17.00;98478.00;;;;2090290;28;20684;-50
2024/01/04 02:00:41;;;;;;;1.30;0.60;;;;;17.00;98489.00;;;;2088867;28;20216;-51
2024/01/04 02:01:41;;;;;;;1.33;0.50;;;;;17.00;98489.00;;;;2080754;28;20228;-53
2024/01/04 02:02:46;;;;;;;1.50;0.70;;;;;17.00;98488.00;;;;2079182;28;20243;-53
2024/01/04 02:03:47;;;;;;;1.27;0.52;;;;;17.00;98487.00;;;;2092114;28;20300;-53
2024/01/04 02:04:47;;;;;;;1.50;0.60;;;;;17.00;98483.00;;;;2087616;28;20210;-49
2024/01/04 02:05:47;;;;;;;1.27;0.50;;;;;17.00;98496.00;;;;2086512;28;20264;-52
2024/01/04 02:06:48;;;;;;;3.20;1.13;;;;;17.00;98492.00;;;;2083109;28;20990;-56
2024/01/04 02:07:48;;;;;;;1.37;0.47;;;;;17.00;98498.00;;;;2084463;28;20819;-52
2024/01/04 02:08:49;;;;;;;1.40;0.53;;;;;17.00;98501.00;;;;2093840;28;20796;-50
2024/01/04 02:09:49;;;;;;;1.13;0.50;;;;;17.00;98503.00;;;;2082232;28;20240;-50
2024/01/04 02:10:49;;;;;;;1.07;0.40;;;;;17.00;98505.00;;;;2085398;28;20247;-52
2024/01/04 02:11:50;;;;;;;1.40;0.60;;;;;17.00;98507.00;;;;2074524;28;20210;-53
2024/01/04 02:12:50;;;;;;;1.53;0.70;;;;;17.00;98513.00;;;;2091786;28;20217;-53
2024/01/04 02:13:50;;;;;;;1.40;0.60;;;;;17.00;98504.00;;;;2089358;28;20248;-53
2024/01/04 02:14:54;;;;;;;1.40;0.60;;;;;17.00;98513.00;;;;2085017;28;20210;-53
2024/01/04 02:15:54;;;;;;;1.55;0.65;;;;;16.90;98515.00;;;;2083270;28;20227;-50
2024/01/04 02:16:55;;;;;;;1.10;0.50;;;;;17.00;98509.00;;;;2075983;28;20465;-51
2024/01/04 02:17:55;;;;;;;1.10;0.50;;;;;17.00;98530.00;;;;2085837;28;20232;-51
2024/01/04 02:18:55;;;;;;;2.07;0.70;;;;;17.00;98565.00;;;;2085051;28;20212;-52
2024/01/04 02:19:56;;;;;;;1.17;0.47;;;;;17.00;98538.00;;;;2086017;28;20584;-50
2024/01/04 02:20:56;;;;;;;1.80;0.50;;;;;17.00;98536.00;;;;2081767;28;20392;-52
2024/01/04 02:21:57;;;;;;;1.10;0.50;;;;;17.00;98535.00;;;;2074590;28;20225;-50
2024/01/04 02:22:57;;;;;;;2.37;0.80;;;;;17.00;98536.00;;;;2086360;28;20209;-50
2024/01/04 02:23:57;;;;;;;1.27;0.47;;;;;17.00;98534.00;;;;2092260;28;20299;-50
2024/01/04 02:24:58;;;;;;;1.40;0.70;;;;;17.00;98549.00;;;;2088305;28;20209;-52
2024/01/04 02:25:58;;;;;;;1.30;0.40;;;;;17.00;98552.00;;;;2085413;28;20214;-50
2024/01/04 02:26:58;;;;;;;1.40;0.60;;;;;17.00;98554.00;;;;2074819;28;20228;-52
2024/01/04 02:27:59;;;;;;;1.43;0.60;;;;;17.00;98554.00;;;;2085476;28;20224;-51
2024/01/04 02:28:59;;;;;;;2.13;0.70;;;;;17.00;98559.00;;;;2093043;28;20217;-51
2024/01/04 02:29:59;;;;;;;1.20;0.50;;;;;17.00;98568.00;;;;2087115;28;20275;-51
2024/01/04 02:31:00;;;;;;;1.30;0.50;;;;;17.00;98565.00;;;;2084738;28;20209;-52
2024/01/04 02:32:00;;;;;;;1.80;0.50;;;;;17.00;98566.00;;;;2076451;28;20277;-49
2024/01/04 02:33:00;;;;;;;1.27;0.47;;;;;17.00;98560.00;;;;2080464;28;20245;-49
2024/01/04 02:34:01;;;;;;;1.27;0.43;;;;;17.00;98564.00;;;;2084783;28;20221;-52
2024/01/04 02:35:01;;;;;;;1.20;0.47;;;;;17.00;98560.00;;;;2085372;28;20224;-53
2024/01/04 02:36:02;;;;;;;1.43;0.57;;;;;17.00;98569.00;;;;2086544;28;20247;-52
2024/01/04 02:37:02;;;;;;;1.63;0.60;;;;;17.00;98567.00;;;;2075972;28;20225;-52
2024/01/04 02:38:02;;;;;;;1.80;0.50;;;;;17.00;98569.00;;;;2085388;28;20224;-53
2024/01/04 02:39:02;;;;;;;1.93;0.70;;;;;17.00;98579.00;;;;2085585;28;20210;-50
2024/01/04 02:40:04;;;;;;;1.10;0.40;;;;;17.00;98572.00;;;;2081993;28;20640;-50
2024/01/04 02:41:04;;;;;;;2.40;0.57;;;;;17.00;98581.00;;;;2085015;28;20232;-52
2024/01/04 02:42:04;;;;;;;2.73;0.80;;;;;17.00;98579.00;;;;2075710;28;20223;-49
2024/01/04 02:43:09;;;;;;;1.40;0.50;;;;;17.00;98586.00;;;;2093081;28;20220;-50
2024/01/04 02:44:09;;;;;;;1.30;0.50;;;;;17.00;98590.00;;;;2091847;28;20285;-51
2024/01/04 02:45:10;;;;;;;1.43;0.57;;;;;17.00;98582.00;;;;2094435;28;20634;-52
2024/01/04 02:46:10;;;;;;;1.17;0.50;;;;;17.00;98590.00;;;;2092472;28;20226;-53
2024/01/04 02:47:11;;;;;;;1.27;0.60;;;;;17.00;98634.00;;;;2075199;28;21014;-53
2024/01/04 02:48:11;;;;;;;2.03;0.50;;;;;17.00;98593.00;;;;2086376;28;21113;-51
2024/01/04 02:49:12;;;;;;;1.30;0.50;;;;;17.00;98603.00;;;;2085602;28;20303;-53
2024/01/04 02:50:13;;;;;;;1.30;0.50;;;;;17.00;98595.00;;;;2078466;28;20226;-50
2024/01/04 02:51:13;;;;;;;1.38;0.50;;;;;17.00;98597.00;;;;2084253;28;21015;-51
2024/01/04 02:52:13;;;;;;;1.50;0.60;;;;;17.00;98608.00;;;;2076447;28;20324;-50
2024/01/04 02:53:14;;;;;;;3.50;1.13;;;;;17.00;98602.00;;;;2084007;28;20221;-52
2024/01/04 02:54:14;;;;;;;1.23;0.50;;;;;17.00;98608.00;;;;2080696;28;20240;-52
2024/01/04 02:55:14;;;;;;;1.00;0.40;;;;;17.00;98611.00;;;;2086402;28;20227;-53
2024/01/04 02:56:15;;;;;;;1.13;0.40;;;;;17.00;98612.00;;;;2087164;28;20217;-52
2024/01/04 02:57:15;;;;;;;1.43;0.50;;;;;17.00;98620.00;;;;2079130;28;20507;-56
2024/01/04 02:58:15;;;;;;;1.30;0.50;;;;;17.00;98610.00;;;;2091551;28;20216;-52
2024/01/04 02:59:16;;;;;;;1.23;0.47;;;;;17.00;98613.00;;;;2082385;28;20217;-50
2024/01/04 03:00:17;;;;;;;1.40;0.70;;;;;17.00;98620.00;;;;2085849;28;20277;-53
2024/01/04 03:01:21;;;;;;;1.10;0.50;;;;;17.00;98615.00;;;;2083730;28;20225;-53
2024/01/04 03:02:21;;;;;;;1.50;0.50;;;;;17.00;98620.00;;;;2075548;28;20225;-53
2024/01/04 03:03:21;;;;;;;1.20;0.50;;;;;17.00;98612.00;;;;2084863;28;20655;-53
2024/01/04 03:04:22;;;;;;;1.30;0.50;;;;;16.40;98622.00;;;;2086290;28;20699;-53
2024/01/04 03:05:22;;;;;;;1.57;0.50;;;;;17.00;98626.00;;;;2085306;28;20284;-51
2024/01/04 03:06:23;;;;;;;1.30;0.43;;;;;16.90;98638.00;;;;2084848;28;20251;-50
2024/01/04 03:07:23;;;;;;;1.87;0.70;;;;;17.00;98630.00;;;;2077139;28;20255;-53
2024/01/04 03:08:23;;;;;;;1.30;0.47;;;;;17.00;98628.00;;;;2085456;28;20490;-53
2024/01/04 03:09:24;;;;;;;1.63;0.60;;;;;17.00;98625.00;;;;2085812;28;20210;-53
2024/01/04 03:10:24;;;;;;;1.37;0.50;;;;;17.00;98630.00;;;;2082276;28;20301;-50
2024/01/04 03:11:24;;;;;;;1.27;0.60;;;;;17.00;98635.00;;;;2084923;28;20231;-50
2024/01/04 03:12:25;;;;;;;1.00;0.40;;;;;17.00;98636.00;;;;2076065;28;20229;-51
2024/01/04 03:13:25;;;;;;;1.20;0.50;;;;;17.00;98638.00;;;;2084957;28;20268;-53
2024/01/04 03:14:25;;;;;;;1.30;0.50;;;;;17.00;98632.00;;;;2085104;28;20299;-52
2024/01/04 03:15:26;;;;;;;2.00;0.50;;;;;17.00;98643.00;;;;2084258;28;20213;-53
2024/01/04 03:16:27;;;;;;;1.30;0.57;;;;;17.00;98643.00;;;;2086198;28;20212;-53
2024/01/04 03:17:27;;;;;;;1.37;0.60;;;;;17.00;98646.00;;;;2068378;28;20253;-53
2024/01/04 03:18:27;;;;;;;1.17;0.50;;;;;17.00;98644.00;;;;2086408;28;20492;-53
2024/01/04 03:19:28;;;;;;;1.10;0.47;;;;;17.00;98642.00;;;;2085792;28;20294;-52
2024/01/04 03:20:28;;;;;;;1.37;0.50;;;;;17.00;98641.00;;;;2084828;28;20236;-53
2024/01/04 03:21:28;;;;;;;1.10;0.50;;;;;17.00;98648.00;;;;2083355;28;20209;-53
2024/01/04 03:22:29;;;;;;;1.30;0.50;;;;;17.00;98632.00;;;;2075228;28;20237;-49
2024/01/04 03:23:29;;;;;;;1.87;0.50;;;;;17.00;98632.00;;;;2093602;28;20209;-51
2024/01/04 03:24:31;;;;;;;1.10;0.50;;;;;17.00;98638.00;;;;2087526;28;20216;-53
2024/01/04 03:25:31;;;;;;;1.30;0.60;;;;;17.00;98635.00;;;;2085889;28;20209;-52
2024/01/04 03:26:32;;;;;;;2.00;0.77;;;;;17.00;98642.00;;;;2086596;28;20216;-53
2024/01/04 03:27:32;;;;;;;1.37;0.50;;;;;17.00;98635.00;;;;2070160;28;20256;-53
2024/01/04 03:28:32;;;;;;;1.17;0.53;;;;;17.00;98639.00;;;;2085987;28;20612;-53
2024/01/04 03:29:33;;;;;;;1.50;0.53;;;;;17.00;98641.00;;;;2086945;28;20689;-53
2024/01/04 03:30:33;;;;;;;1.40;0.60;;;;;16.90;98637.00;;;;2091286;28;20209;-50
2024/01/04 03:31:33;;;;;;;1.30;0.50;;;;;16.90;98644.00;;;;2083942;28;20251;-51
2024/01/04 03:32:34;;;;;;;1.20;0.40;;;;;17.00;98644.00;;;;2075677;28;20205;-52
2024/01/04 03:33:34;;;;;;;1.03;0.50;;;;;17.00;98646.00;;;;2084699;28;20218;-53
2024/01/04 03:34:34;;;;;;;1.40;0.53;;;;;16.90;98653.00;;;;2085029;28;20233;-53
2024/01/04 03:35:35;;;;;;;1.10;0.50;;;;;17.00;98661.00;;;;2088342;28;20534;-53
2024/01/04 03:36:35;;;;;;;1.70;0.50;;;;;17.00;98664.00;;;;2089699;28;20209;-53
2024/01/04 03:37:35;;;;;;;1.50;0.60;;;;;17.00;98674.00;;;;2082442;28;20238;-53
2024/01/04 03:38:36;;;;;;;1.10;0.47;;;;;17.00;98674.00;;;;2089547;28;20217;-50
2024/01/04 03:39:36;;;;;;;1.20;0.50;;;;;17.00;98675.00;;;;2085831;28;20214;-53
2024/01/04 03:40:37;;;;;;;1.40;0.60;;;;;16.90;98677.00;;;;2085438;28;20221;-50
2024/01/04 03:41:37;;;;;;;1.30;0.40;;;;;16.90;98690.00;;;;2082631;28;20308;-53
2024/01/04 03:42:38;;;;;;;1.47;0.50;;;;;17.00;98690.00;;;;2077139;28;20629;-53
2024/01/04 03:43:38;;;;;;;1.30;0.50;;;;;16.90;98688.00;;;;2086722;28;20911;-50
2024/01/04 03:44:38;;;;;;;1.20;0.50;;;;;17.00;98680.00;;;;2085463;28;20302;-51
2024/01/04 03:45:39;;;;;;;2.20;0.70;;;;;16.90;98676.00;;;;2084821;28;20279;-52
2024/01/04 03:46:39;;;;;;;3.93;0.60;;;;;16.90;98679.00;;;;2079563;28;20224;-53
2024/01/04 03:47:39;;;;;;;1.30;0.50;;;;;16.90;98681.00;;;;2078132;28;20228;-52
2024/01/04 03:48:40;;;;;;;1.20;0.40;;;;;16.90;98680.00;;;;2088464;28;20240;-53
2024/01/04 03:49:40;;;;;;;1.10;0.40;;;;;16.90;98690.00;;;;2090749;28;20225;-49
2024/01/04 03:50:40;;;;;;;1.07;0.47;;;;;16.90;98691.00;;;;2084106;28;20222;-51
2024/01/04 03:51:41;;;;;;;1.20;0.40;;;;;17.00;98694.00;;;;2084159;28;20256;-52
2024/01/04 03:52:41;;;;;;;1.00;0.40;;;;;16.90;98696.00;;;;2068870;28;20750;-53
2024/01/04 03:53:42;;;;;;;1.20;0.57;;;;;16.90;98705.00;;;;2089039;28;20769;-53
2024/01/04 03:54:42;;;;;;;1.20;0.40;;;;;16.90;98692.00;;;;2089993;28;20248;-52
2024/01/04 03:55:42;;;;;;;1.50;0.57;;;;;16.90;98720.00;;;;2080952;28;20213;-51
2024/01/04 03:56:43;;;;;;;1.10;0.40;;;;;16.90;98701.00;;;;2085801;28;21036;-51
2024/01/04 03:57:43;;;;;;;1.40;0.60;;;;;16.90;98709.00;;;;2074868;28;20861;-50
2024/01/04 03:58:44;;;;;;;1.13;0.43;;;;;17.00;98712.00;;;;2087013;28;21122;-51
2024/01/04 03:59:44;;;;;;;1.40;0.50;;;;;16.90;98711.00;;;;2089791;28;21910;-53
2024/01/04 04:00:44;;;;;;;1.23;0.50;;;;;16.90;98709.00;;;;2085365;28;20840;-49
2024/01/04 04:01:45;;;;;;;2.20;0.50;;;;;17.00;98788.00;;;;2083527;28;20720;-51
2024/01/04 04:02:45;;;;;;;1.30;0.50;;;;;16.90;98716.00;;;;2076879;28;20981;-53
2024/01/04 04:03:45;;;;;;;1.53;0.50;;;;;16.90;98714.00;;;;2093308;28;20251;-52
2024/01/04 04:04:46;;;;;;;1.20;0.50;;;;;16.90;98717.00;;;;2088848;28;20567;-53
2024/01/04 04:05:46;;;;;;;1.70;0.50;;;;;17.00;98717.00;;;;2090224;28;20221;-53
2024/01/04 04:06:46;;;;;;;1.00;0.40;;;;;17.00;98713.00;;;;2082590;28;20223;-53
2024/01/04 04:07:47;;;;;;;1.20;0.60;;;;;16.90;98740.00;;;;2079372;28;20216;-53
2024/01/04 04:08:47;;;;;;;1.70;0.70;;;;;16.90;98713.00;;;;2090301;28;20677;-51
2024/01/04 04:09:47;;;;;;;1.93;0.50;;;;;16.90;98718.00;;;;2088580;28;20677;-51
2024/01/04 04:10:48;;;;;;;1.70;0.70;;;;;17.00;98721.00;;;;2089405;28;20219;-50
2024/01/04 04:11:49;;;;;;;1.50;0.60;;;;;17.00;98714.00;;;;2079925;28;20209;-54
2024/01/04 04:12:49;;;;;;;1.30;0.40;;;;;17.00;98716.00;;;;2082831;28;20244;-52
2024/01/04 04:13:49;;;;;;;1.90;0.50;;;;;17.00;98718.00;;;;2082709;28;21002;-49
2024/01/04 04:14:50;;;;;;;1.20;0.40;;;;;16.90;98722.00;;;;2085407;28;20221;-51
2024/01/04 04:15:50;;;;;;;1.50;0.40;;;;;16.90;98727.00;;;;2085660;28;20223;-53
2024/01/04 04:16:50;;;;;;;1.60;0.50;;;;;16.90;98725.00;;;;2074789;28;20217;-53
2024/01/04 04:17:51;;;;;;;2.03;0.80;;;;;16.90;98722.00;;;;2082514;28;20317;-53
2024/01/04 04:18:51;;;;;;;1.30;0.40;;;;;16.90;98718.00;;;;2083847;28;20216;-53
2024/01/04 04:19:51;;;;;;;1.27;0.50;;;;;16.90;98725.00;;;;2085595;28;20217;-53
2024/01/04 04:20:52;;;;;;;1.50;0.63;;;;;16.90;98725.00;;;;2084377;28;20693;-50
2024/01/04 04:21:52;;;;;;;1.13;0.47;;;;;16.90;98727.00;;;;2074521;28;20593;-50
2024/01/04 04:22:52;;;;;;;1.57;0.57;;;;;17.00;98727.00;;;;2089608;28;20216;-51
2024/01/04 04:23:53;;;;;;;1.60;0.40;;;;;17.00;98722.00;;;;2084904;28;20237;-52
2024/01/04 04:24:53;;;;;;;1.07;0.40;;;;;17.00;98725.00;;;;2085018;28;20220;-53
2024/01/04 04:25:53;;;;;;;1.10;0.40;;;;;17.00;98728.00;;;;2084505;28;20250;-53
2024/01/04 04:26:54;;;;;;;1.40;0.60;;;;;17.00;98731.00;;;;2075309;28;20240;-50
2024/01/04 04:27:54;;;;;;;2.17;0.57;;;;;16.90;98739.00;;;;2086144;28;20216;-50
2024/01/04 04:28:55;;;;;;;1.23;0.40;;;;;16.90;98733.00;;;;2085696;28;20225;-50
2024/01/04 04:29:55;;;;;;;1.20;0.50;;;;;17.00;98740.00;;;;2085201;28;20232;-55
2024/01/04 04:30:55;;;;;;;2.03;0.60;;;;;17.00;98735.00;;;;2083996;28;20224;-53
2024/01/04 04:31:56;;;;;;;1.17;0.50;;;;;17.00;98739.00;;;;2074262;28;20228;-51
2024/01/04 04:32:56;;;;;;;2.03;0.50;;;;;17.00;98739.00;;;;2084799;28;20233;-50
2024/01/04 04:33:56;;;;;;;1.20;0.50;;;;;16.90;98742.00;;;;2083984;28;20213;-50
2024/01/04 04:34:57;;;;;;;1.40;0.50;;;;;16.90;98752.00;;;;2084708;28;20225;-51
2024/01/04 04:35:57;;;;;;;1.30;0.50;;;;;16.90;98752.00;;;;2085471;28;20237;-52
2024/01/04 04:36:57;;;;;;;1.70;0.73;;;;;16.90;98747.00;;;;2075655;28;20224;-52
2024/01/04 04:37:58;;;;;;;1.27;0.50;;;;;17.00;98756.00;;;;2082937;28;20213;-53
2024/01/04 04:39:02;;;;;;;1.50;0.50;;;;;16.90;98762.00;;;;2090169;28;20871;-53
2024/01/04 04:40:02;;;;;;;1.42;0.60;;;;;16.90;98750.00;;;;2087160;28;20209;-52
2024/01/04 04:41:03;;;;;;;2.03;0.50;;;;;16.90;98746.00;;;;2082624;28;20213;-53
2024/01/04 04:42:03;;;;;;;1.57;0.60;;;;;16.90;98756.00;;;;2074021;28;20208;-51
2024/01/04 04:43:03;;;;;;;1.00;0.47;;;;;17.00;98752.00;;;;2091191;28;20213;-53
2024/01/04 04:44:04;;;;;;;1.50;0.67;;;;;16.90;98762.00;;;;2087920;28;20209;-53
2024/01/04 04:45:05;;;;;;;1.70;0.50;;;;;17.00;98756.00;;;;2084436;28;20239;-52
2024/01/04 04:46:09;;;;;;;1.27;0.50;;;;;17.00;98780.00;;;;2091243;28;20248;-50
2024/01/04 04:47:10;;;;;;;1.30;0.57;;;;;16.90;98765.00;;;;2076681;28;20287;-53
2024/01/04 04:48:10;;;;;;;2.13;0.70;;;;;16.90;98762.00;;;;2085546;28;20217;-53
2024/01/04 04:49:10;;;;;;;1.40;0.50;;;;;16.90;98763.00;;;;2084548;28;20214;-53
2024/01/04 04:50:11;;;;;;;1.83;0.60;;;;;16.90;98765.00;;;;2085543;28;20399;-52
2024/01/04 04:51:11;;;;;;;1.00;0.40;;;;;16.90;98774.00;;;;2083070;28;20605;-53
2024/01/04 04:52:11;;;;;;;1.40;0.50;;;;;16.90;98769.00;;;;2075434;28;20283;-51
2024/01/04 04:53:12;;;;;;;1.77;0.53;;;;;16.90;98788.00;;;;2083486;28;21007;-53
2024/01/04 04:54:12;;;;;;;1.30;0.50;;;;;16.90;98769.00;;;;2084662;28;20726;-53
2024/01/04 04:55:13;;;;;;;1.83;0.60;;;;;17.00;98765.00;;;;2085346;28;20274;-53
2024/01/04 04:56:13;;;;;;;1.43;0.60;;;;;16.90;98769.00;;;;2084317;28;20414;-53
2024/01/04 04:57:13;;;;;;;1.30;0.53;;;;;16.90;98766.00;;;;2073767;28;20285;-52
2024/01/04 04:58:14;;;;;;;2.00;0.50;;;;;16.90;98769.00;;;;2090033;28;20217;-50
2024/01/04 04:59:14;;;;;;;4.17;0.60;;;;;16.90;98767.00;;;;2085150;28;20249;-52
2024/01/04 05:00:15;;;;;;;1.70;0.70;;;;;16.90;98764.00;;;;2085554;28;20214;-50
2024/01/04 05:01:15;;;;;;;1.20;0.50;;;;;16.90;98775.00;;;;2078645;28;20267;-51
2024/01/04 05:02:15;;;;;;;1.30;0.57;;;;;16.90;98778.00;;;;2075652;28;20312;-52
2024/01/04 05:03:16;;;;;;;1.30;0.60;;;;;16.90;98777.00;;;;2085387;28;20222;-50